Terminal Aerodrome Forecast
Issued by NWS

Home | Current Version | Previous Version | Text Only | Print | Product List | Glossary On
Versions: 1 2 3 4 5 6 7 8 9 10 11 12 13 14
662
FTUS44 KEPZ 290534
TAFLRU
TAF
KLRU 290534Z 2906/3006 26015G25KT P6SM SCT100
     FM290900 28010KT P6SM FEW100
     FM291500 28014G24KT P6SM FEW080
     FM291800 27020G30KT P6SM FEW080
     FM300300 28010KT P6SM SKC=

USA.gov is the U.S. government's official web portal to all federal, state and local government web resources and services.